Time;durP1;ratioP1;P1;durP2;ratioP2;P2;SDS_P1;SDS_P2;PMS_P1;PMS_P2;Temp;Humidity;BMP_temperature;BMP_pressure;BME280_temperature;BME280_humidity;BME280_pressure;Samples;Min_cycle;Max_cycle;Signal;HPM_P1;HPM_P2
2022/04/11 00:02:12;;;;;;;8.23;5.57;;;2.80;99.90;;;;;;5096340;28;20535;-81
2022/04/11 00:04:40;;;;;;;7.47;6.00;;;2.70;99.90;;;;;;5091745;28;20540;-81
2022/04/11 00:07:08;;;;;;;9.00;5.17;;;2.70;99.90;;;;;;5075769;28;20527;-81
2022/04/11 00:09:36;;;;;;;7.37;5.20;;;2.70;99.90;;;;;;5075889;28;20788;-81
2022/04/11 00:12:05;;;;;;;7.43;5.00;;;2.70;99.90;;;;;;5082143;28;20456;-81
2022/04/11 00:14:34;;;;;;;8.30;5.50;;;2.70;99.90;;;;;;5096512;28;21021;-81
2022/04/11 00:17:04;;;;;;;7.83;5.67;;;2.70;99.90;;;;;;5095861;28;20468;-81
2022/04/11 00:19:32;;;;;;;9.77;5.30;;;2.60;99.90;;;;;;5091412;28;20498;-81
2022/04/11 00:22:01;;;;;;;8.67;5.40;;;2.60;99.90;;;;;;5075656;28;20517;-81
2022/04/11 00:24:29;;;;;;;6.83;5.67;;;2.60;99.90;;;;;;5075614;28;20548;-81
2022/04/11 00:26:57;;;;;;;8.50;4.90;;;2.60;99.90;;;;;;5073455;28;20474;-81
2022/04/11 00:29:25;;;;;;;7.33;5.20;;;2.60;99.90;;;;;;5087136;28;20854;-81
2022/04/11 00:31:53;;;;;;;7.03;5.40;;;2.60;99.90;;;;;;5095463;28;20458;-81
2022/04/11 00:34:26;;;;;;;8.20;5.60;;;2.60;99.90;;;;;;5095918;28;20451;-81
2022/04/11 00:36:54;;;;;;;15.03;5.80;;;2.60;99.90;;;;;;5075922;28;20469;-81
2022/04/11 00:39:22;;;;;;;7.27;5.33;;;2.60;99.90;;;;;;5075695;28;20526;-81
2022/04/11 00:41:50;;;;;;;8.40;5.40;;;2.60;99.90;;;;;;5095556;28;20562;-81
2022/04/11 00:44:19;;;;;;;7.67;5.50;;;2.60;99.90;;;;;;5089424;28;20511;-81
2022/04/11 00:46:47;;;;;;;8.50;5.00;;;2.60;99.90;;;;;;5075677;28;20465;-81
2022/04/11 00:49:16;;;;;;;8.13;5.63;;;2.70;99.90;;;;;;5074242;28;20452;-81
2022/04/11 00:51:46;;;;;;;7.57;5.40;;;2.60;99.90;;;;;;5075239;28;20518;-81
2022/04/11 00:54:14;;;;;;;7.93;5.80;;;2.60;99.90;;;;;;5093154;28;20440;-81
2022/04/11 00:56:44;;;;;;;7.63;5.70;;;2.60;99.90;;;;;;5095185;28;20479;-81
2022/04/11 00:59:15;;;;;;;6.03;5.27;;;2.60;99.90;;;;;;5085656;28;20539;-82
2022/04/11 01:01:44;;;;;;;6.03;5.13;;;2.60;99.90;;;;;;5075635;28;20531;-81
2022/04/11 01:04:23;;;;;;;5.10;4.30;;;2.60;99.90;;;;;;5075225;28;20468;-81
2022/04/11 01:06:54;;;;;;;6.97;5.00;;;2.70;99.90;;;;;;5075309;28;20492;-81
2022/04/11 01:09:24;;;;;;;5.97;4.80;;;2.60;99.90;;;;;;5075813;28;20461;-81
2022/04/11 01:11:53;;;;;;;6.57;5.10;;;2.60;99.90;;;;;;5082885;28;20448;-81
2022/04/11 01:14:21;;;;;;;8.77;4.97;;;2.60;99.90;;;;;;5075302;28;20452;-81
2022/04/11 01:16:50;;;;;;;5.50;4.23;;;2.60;99.90;;;;;;5093431;28;21008;-81
2022/04/11 01:19:19;;;;;;;7.67;4.43;;;2.60;99.90;;;;;;5095032;28;20846;-81
2022/04/11 01:21:48;;;;;;;6.77;5.33;;;2.70;99.90;;;;;;5095209;28;20443;-82
2022/04/11 01:24:20;;;;;;;6.07;4.60;;;2.70;99.90;;;;;;5096886;28;20466;-81
2022/04/11 01:26:50;;;;;;;7.43;4.90;;;2.70;99.90;;;;;;5095574;28;20461;-81
2022/04/11 01:29:20;;;;;;;8.30;5.60;;;2.70;99.90;;;;;;5095316;28;20475;-81
2022/04/11 01:31:49;;;;;;;9.93;6.03;;;2.70;99.90;;;;;;5095499;28;20468;-81
2022/04/11 01:34:17;;;;;;;6.20;4.27;;;2.70;99.90;;;;;;5094109;28;20554;-81
2022/04/11 01:36:46;;;;;;;7.77;5.33;;;2.70;99.90;;;;;;5055240;28;20477;-81
2022/04/11 01:39:15;;;;;;;7.47;4.97;;;2.70;99.90;;;;;;5074848;28;20543;-81
2022/04/11 01:41:44;;;;;;;7.50;5.83;;;2.70;99.90;;;;;;5094944;28;20448;-82
2022/04/11 01:44:12;;;;;;;7.13;5.00;;;2.70;99.90;;;;;;5077457;28;20479;-81
2022/04/11 01:46:42;;;;;;;8.80;5.90;;;2.70;99.90;;;;;;5074936;28;20467;-80
2022/04/11 01:49:15;;;;;;;8.50;5.50;;;2.70;99.90;;;;;;5075185;28;20456;-80
2022/04/11 01:51:43;;;;;;;7.97;5.00;;;2.70;99.90;;;;;;5075296;28;20536;-80
2022/04/11 01:54:14;;;;;;;8.37;4.73;;;2.60;99.90;;;;;;5091503;28;20514;-80
2022/04/11 01:56:43;;;;;;;7.97;4.60;;;2.70;99.90;;;;;;5096654;28;20476;-80
2022/04/11 01:59:12;;;;;;;6.33;4.80;;;2.70;99.90;;;;;;5086094;28;20452;-80
2022/04/11 02:01:41;;;;;;;7.90;5.73;;;2.60;99.90;;;;;;5075294;28;20452;-80
2022/04/11 02:04:09;;;;;;;10.70;5.20;;;2.60;99.90;;;;;;5076224;28;20471;-80
2022/04/11 02:06:38;;;;;;;7.87;6.03;;;2.60;99.90;;;;;;5089707;28;20480;-80
2022/04/11 02:09:06;;;;;;;8.77;5.63;;;2.60;99.90;;;;;;5098815;28;20464;-80
2022/04/11 02:11:36;;;;;;;7.10;6.40;;;2.50;99.90;;;;;;5099024;28;20866;-80
2022/04/11 02:14:08;;;;;;;8.30;5.67;;;2.50;99.90;;;;;;5097054;28;20432;-80
2022/04/11 02:16:36;;;;;;;9.43;6.10;;;2.50;99.90;;;;;;5078524;28;20539;-80
2022/04/11 02:19:04;;;;;;;10.20;5.67;;;2.50;99.90;;;;;;5078897;28;20459;-80
2022/04/11 02:21:33;;;;;;;7.07;5.13;;;2.50;99.90;;;;;;5080759;28;20811;-80
2022/04/11 02:24:02;;;;;;;8.23;5.50;;;2.40;99.90;;;;;;5091698;28;20507;-80
2022/04/11 02:26:30;;;;;;;6.47;5.17;;;2.40;99.90;;;;;;5078802;28;20499;-80
2022/04/11 02:29:00;;;;;;;9.70;5.90;;;2.40;99.90;;;;;;5079657;28;20453;-80
2022/04/11 02:31:29;;;;;;;7.70;5.43;;;2.40;99.90;;;;;;5078329;28;20558;-80
2022/04/11 02:33:57;;;;;;;8.90;5.33;;;2.40;99.90;;;;;;5081100;28;20454;-80
2022/04/11 02:36:26;;;;;;;8.87;6.33;;;2.30;99.90;;;;;;5098620;28;20467;-80
2022/04/11 02:38:55;;;;;;;10.63;6.20;;;2.40;99.90;;;;;;5097938;28;20472;-80
2022/04/11 02:41:23;;;;;;;7.83;6.03;;;2.30;99.90;;;;;;5090672;28;20463;-80
2022/04/11 02:43:53;;;;;;;9.70;6.03;;;2.30;99.90;;;;;;5093759;28;20479;-80
2022/04/11 02:46:25;;;;;;;7.83;6.40;;;2.30;99.90;;;;;;5084402;28;20519;-80
2022/04/11 02:48:53;;;;;;;6.60;5.93;;;2.30;99.90;;;;;;5083185;28;20555;-80
2022/04/11 02:51:28;;;;;;;6.10;5.00;;;2.20;99.90;;;;;;5094196;28;20481;-80
2022/04/11 02:54:07;;;;;;;7.27;5.73;;;2.20;99.90;;;;;;5102705;28;20424;-80
2022/04/11 02:56:39;;;;;;;7.50;5.33;;;2.20;99.90;;;;;;5098946;28;20478;-80
2022/04/11 02:59:09;;;;;;;8.03;6.53;;;2.20;99.90;;;;;;5097874;28;20793;-80
2022/04/11 03:01:41;;;;;;;9.87;6.53;;;2.20;99.90;;;;;;5098359;28;20476;-80
2022/04/11 03:04:10;;;;;;;7.93;5.50;;;2.20;99.90;;;;;;5098183;28;20490;-80
2022/04/11 03:07:11;;;;;;;8.70;5.97;;;2.10;99.90;;;;;;5098502;28;20544;-80
2022/04/11 03:09:40;;;;;;;6.73;6.00;;;2.10;99.90;;;;;;5095002;28;20548;-80
2022/04/11 03:12:11;;;;;;;7.50;6.30;;;2.10;99.90;;;;;;5088934;28;20960;-80
2022/04/11 03:14:39;;;;;;;9.83;6.00;;;2.10;99.90;;;;;;5097286;28;20445;-80
2022/04/11 03:17:10;;;;;;;7.10;5.90;;;2.00;99.90;;;;;;5098171;28;20474;-80
2022/04/11 03:19:39;;;;;;;8.00;5.70;;;2.00;99.90;;;;;;5098133;28;20449;-80
2022/04/11 03:22:08;;;;;;;6.37;5.77;;;2.00;99.90;;;;;;5097928;28;20451;-80
2022/04/11 03:24:39;;;;;;;9.00;6.30;;;2.00;99.90;;;;;;5098169;28;20462;-80
2022/04/11 03:27:07;;;;;;;8.53;5.90;;;2.00;99.90;;;;;;5097685;28;21004;-80
2022/04/11 03:29:38;;;;;;;6.87;5.80;;;2.00;99.90;;;;;;5097803;28;20461;-80
2022/04/11 03:32:07;;;;;;;6.47;5.87;;;2.00;99.90;;;;;;5097390;28;20450;-80
2022/04/11 03:34:40;;;;;;;6.80;5.87;;;1.90;99.90;;;;;;5098206;28;20437;-80
2022/04/11 03:37:09;;;;;;;8.17;6.27;;;1.90;99.90;;;;;;5097684;28;20925;-79
2022/04/11 03:39:43;;;;;;;9.90;6.07;;;1.90;99.90;;;;;;5097547;28;20456;-80
2022/04/11 03:42:11;;;;;;;7.97;5.77;;;1.90;99.90;;;;;;5086586;28;20451;-80
2022/04/11 03:44:40;;;;;;;7.03;6.20;;;1.90;99.90;;;;;;5088069;28;20560;-80
2022/04/11 03:47:14;;;;;;;7.43;5.80;;;1.90;99.90;;;;;;5096732;28;20500;-80
2022/04/11 03:49:44;;;;;;;6.80;6.10;;;1.80;99.90;;;;;;5097284;28;20509;-80
2022/04/11 03:52:29;;;;;;;9.00;7.70;;;1.80;99.90;;;;;;5082318;28;20973;-80
2022/04/11 03:54:59;;;;;;;6.83;5.63;;;1.80;99.90;;;;;;5076552;28;20449;-80
2022/04/11 03:57:29;;;;;;;8.83;5.47;;;1.80;99.90;;;;;;5084173;28;20594;-80
2022/04/11 04:00:05;;;;;;;8.10;5.90;;;1.80;99.90;;;;;;5089209;28;20525;-80
2022/04/11 04:02:44;;;;;;;7.53;6.83;;;1.70;99.90;;;;;;5077615;28;20418;-80
2022/04/11 04:05:17;;;;;;;9.33;6.80;;;1.80;99.90;;;;;;5075835;28;20463;-80
2022/04/11 04:07:47;;;;;;;11.10;6.50;;;1.70;99.90;;;;;;5077067;28;20446;-80
2022/04/11 04:10:16;;;;;;;9.27;7.03;;;1.70;99.90;;;;;;5076832;28;20466;-80
2022/04/11 04:12:44;;;;;;;6.67;6.07;;;1.70;99.90;;;;;;5075948;28;20453;-80
2022/04/11 04:15:17;;;;;;;9.07;6.20;;;1.70;99.90;;;;;;5076789;28;20524;-80
2022/04/11 04:17:53;;;;;;;8.40;6.47;;;1.60;99.90;;;;;;5077163;28;20437;-80
2022/04/11 04:20:25;;;;;;;6.37;5.77;;;1.60;99.90;;;;;;5077682;28;20434;-80
2022/04/11 04:22:55;;;;;;;9.10;8.20;;;1.60;99.90;;;;;;5076603;28;20435;-80
2022/04/11 04:25:30;;;;;;;8.73;7.47;;;1.60;99.90;;;;;;5076880;28;20465;-80
2022/04/11 04:27:59;;;;;;;10.10;8.47;;;1.60;99.90;;;;;;5075545;28;20524;-80
2022/04/11 04:30:28;;;;;;;10.33;7.27;;;1.60;99.90;;;;;;5076582;28;20449;-80
2022/04/11 04:32:57;;;;;;;9.47;8.00;;;1.50;99.90;;;;;;5076218;28;20443;-80
2022/04/11 04:35:27;;;;;;;8.70;7.73;;;1.50;99.90;;;;;;5076289;28;20450;-80
2022/04/11 04:38:00;;;;;;;9.30;8.40;;;1.50;99.90;;;;;;5075961;28;20437;-80
2022/04/11 04:40:33;;;;;;;9.00;7.33;;;1.50;99.90;;;;;;5075881;28;20956;-80
2022/04/11 04:43:04;;;;;;;9.90;7.70;;;1.50;99.90;;;;;;5076114;28;20446;-80
2022/04/11 04:45:32;;;;;;;11.53;7.87;;;1.40;99.90;;;;;;5076539;28;20816;-80
2022/04/11 04:48:16;;;;;;;10.10;6.47;;;1.40;99.90;;;;;;5076704;28;20449;-80
2022/04/11 04:50:47;;;;;;;7.30;6.53;;;1.40;99.90;;;;;;5076191;28;20489;-80
2022/04/11 04:53:17;;;;;;;10.70;7.17;;;1.40;99.90;;;;;;5076537;28;20498;-80
2022/04/11 04:55:49;;;;;;;10.00;7.03;;;1.40;99.90;;;;;;5076268;28;20835;-80
2022/04/11 04:58:17;;;;;;;6.53;5.67;;;1.40;99.90;;;;;;5075752;28;20438;-80
2022/04/11 05:00:46;;;;;;;9.80;6.53;;;1.30;99.90;;;;;;5076491;28;20455;-80
2022/04/11 05:03:18;;;;;;;9.50;7.30;;;1.30;99.90;;;;;;5076458;28;20446;-80
2022/04/11 05:05:48;;;;;;;9.50;7.70;;;1.30;99.90;;;;;;5075942;28;20516;-80
2022/04/11 05:08:17;;;;;;;13.50;6.20;;;1.30;99.90;;;;;;5076163;28;20440;-80
2022/04/11 05:10:45;;;;;;;9.07;6.70;;;1.30;99.90;;;;;;5075397;28;20452;-80
2022/04/11 05:13:14;;;;;;;9.17;7.10;;;1.40;99.90;;;;;;5075795;28;20452;-80
2022/04/11 05:15:46;;;;;;;7.40;6.67;;;1.40;99.90;;;;;;5075734;28;20477;-80
2022/04/11 05:18:21;;;;;;;8.57;7.73;;;1.40;99.90;;;;;;5075855;28;20445;-81
2022/04/11 05:20:51;;;;;;;12.60;10.73;;;1.40;99.90;;;;;;5075839;28;20539;-80
2022/04/11 05:23:21;;;;;;;14.90;10.73;;;1.50;99.90;;;;;;5076686;28;20535;-80
2022/04/11 05:25:50;;;;;;;13.83;9.90;;;1.40;99.90;;;;;;5075341;28;20485;-80
2022/04/11 05:28:20;;;;;;;18.60;8.90;;;1.40;99.90;;;;;;5075713;28;20453;-80
2022/04/11 05:30:54;;;;;;;15.23;8.83;;;1.50;99.90;;;;;;5079049;28;20472;-79
2022/04/11 05:33:22;;;;;;;11.03;8.23;;;1.50;99.90;;;;;;5076748;28;20443;-81
2022/04/11 05:35:53;;;;;;;11.47;9.53;;;1.50;99.90;;;;;;5075438;28;20489;-81
2022/04/11 05:38:21;;;;;;;12.80;11.33;;;1.50;99.90;;;;;;5075996;28;20445;-80
2022/04/11 05:40:52;;;;;;;9.63;8.20;;;1.60;99.90;;;;;;5079331;28;20455;-80
2022/04/11 05:43:32;;;;;;;10.00;8.87;;;1.60;99.90;;;;;;5079232;28;20442;-80
2022/04/11 05:46:02;;;;;;;9.50;7.70;;;1.70;99.90;;;;;;5079001;28;20485;-80
2022/04/11 05:48:32;;;;;;;10.53;8.60;;;1.70;99.90;;;;;;5080152;28;20479;-80
2022/04/11 05:51:03;;;;;;;11.67;9.33;;;1.80;99.90;;;;;;5078501;28;20514;-80
2022/04/11 05:53:32;;;;;;;10.50;9.37;;;1.80;99.90;;;;;;5079104;28;20437;-80
2022/04/11 05:56:00;;;;;;;11.80;9.37;;;1.80;99.90;;;;;;5078228;28;21029;-81
2022/04/11 05:58:29;;;;;;;9.50;8.60;;;1.90;99.90;;;;;;5078572;28;20514;-79
2022/04/11 06:01:00;;;;;;;9.40;8.30;;;1.90;99.90;;;;;;5078702;28;20450;-79
2022/04/11 06:03:29;;;;;;;12.40;9.20;;;2.00;99.90;;;;;;5078613;28;20437;-79
2022/04/11 06:05:58;;;;;;;10.43;9.30;;;2.10;99.90;;;;;;5078005;28;20512;-79
2022/04/11 06:08:29;;;;;;;10.83;9.20;;;2.10;99.90;;;;;;5078640;28;20439;-79
2022/04/11 06:10:57;;;;;;;9.80;8.60;;;2.20;99.90;;;;;;5078081;28;20477;-79
2022/04/11 06:13:26;;;;;;;11.60;8.97;;;2.20;99.90;;;;;;5078053;28;20887;-79
2022/04/11 06:15:58;;;;;;;12.90;9.20;;;2.30;99.90;;;;;;5077581;28;20468;-79
2022/04/11 06:18:28;;;;;;;9.97;8.20;;;2.40;99.90;;;;;;5078760;28;20449;-79
2022/04/11 06:20:57;;;;;;;11.17;8.43;;;2.50;99.90;;;;;;5078440;28;20438;-79
2022/04/11 06:23:25;;;;;;;12.13;9.40;;;2.60;99.90;;;;;;5079089;28;20822;-81
2022/04/11 06:25:54;;;;;;;10.23;8.93;;;2.70;99.90;;;;;;5078720;28;20481;-79
2022/04/11 06:28:24;;;;;;;12.77;10.03;;;2.80;99.90;;;;;;5078689;28;20459;-79
2022/04/11 06:30:56;;;;;;;10.37;9.37;;;2.90;99.90;;;;;;5078659;28;20545;-79
2022/04/11 06:33:25;;;;;;;12.07;10.50;;;3.00;99.90;;;;;;5078448;28;20455;-79
2022/04/11 06:35:54;;;;;;;10.40;9.30;;;3.10;99.90;;;;;;5078405;28;20497;-79
2022/04/11 06:38:24;;;;;;;10.40;9.30;;;3.20;99.90;;;;;;5078774;28;20838;-79
2022/04/11 06:40:55;;;;;;;10.87;9.37;;;3.30;99.90;;;;;;5079380;28;20491;-79
2022/04/11 06:43:25;;;;;;;12.70;11.23;;;3.50;99.90;;;;;;5079028;28;21001;-79
2022/04/11 06:46:01;;;;;;;14.57;11.83;;;3.50;99.90;;;;;;5078075;28;20571;-79
2022/04/11 06:48:33;;;;;;;18.60;16.70;;;3.70;99.90;;;;;;5078739;28;20437;-79
2022/04/11 06:51:02;;;;;;;14.33;12.83;;;3.80;99.90;;;;;;5078846;28;20467;-79
2022/04/11 06:53:30;;;;;;;10.87;9.93;;;4.00;99.90;;;;;;5083863;28;20445;-79
2022/04/11 06:56:00;;;;;;;14.30;10.20;;;4.20;99.90;;;;;;5092802;28;20469;-79
2022/04/11 06:58:29;;;;;;;14.27;11.13;;;4.40;99.90;;;;;;5093150;28;20444;-79
2022/04/11 07:00:57;;;;;;;14.37;11.30;;;4.70;99.90;;;;;;5094896;28;20456;-79
2022/04/11 07:03:25;;;;;;;10.30;9.30;;;5.00;99.90;;;;;;5088035;28;20521;-79
2022/04/11 07:05:53;;;;;;;12.90;10.40;;;5.30;99.90;;;;;;5082938;28;20505;-80
2022/04/11 07:08:22;;;;;;;11.07;9.50;;;5.70;99.90;;;;;;5079833;28;20441;-80
2022/04/11 07:10:51;;;;;;;11.90;10.70;;;6.00;99.90;;;;;;5081204;28;20433;-80
2022/04/11 07:13:20;;;;;;;9.80;8.80;;;6.30;99.90;;;;;;5079697;28;20472;-79
2022/04/11 07:15:48;;;;;;;10.33;8.63;;;6.50;99.90;;;;;;5080018;28;20529;-80
2022/04/11 07:18:19;;;;;;;13.40;9.73;;;6.80;99.90;;;;;;5080135;28;20470;-79
2022/04/11 07:20:47;;;;;;;9.53;8.60;;;7.00;99.90;;;;;;5079749;28;20443;-79
2022/04/11 07:23:15;;;;;;;9.20;8.40;;;7.20;99.90;;;;;;5082730;28;20432;-79
2022/04/11 07:25:44;;;;;;;11.73;8.00;;;7.40;99.90;;;;;;5082174;28;20876;-79
2022/04/11 07:28:13;;;;;;;8.33;7.53;;;7.50;99.90;;;;;;5081956;28;20497;-79
2022/04/11 07:30:42;;;;;;;10.67;8.03;;;7.60;99.90;;;;;;5081335;28;20961;-79
2022/04/11 07:33:11;;;;;;;9.00;8.10;;;7.90;99.90;;;;;;5081598;28;20961;-79
2022/04/11 07:35:39;;;;;;;7.33;6.50;;;8.00;99.90;;;;;;5081476;28;21092;-79
2022/04/11 07:38:07;;;;;;;8.23;7.43;;;8.20;99.90;;;;;;5081287;28;20984;-79
2022/04/11 07:40:36;;;;;;;8.93;7.23;;;8.40;99.90;;;;;;5081037;28;20491;-80
2022/04/11 07:43:04;;;;;;;10.47;7.60;;;8.50;99.90;;;;;;5083413;28;20455;-79
2022/04/11 07:45:32;;;;;;;8.40;7.43;;;8.70;99.90;;;;;;5082147;28;20449;-79
2022/04/11 07:48:02;;;;;;;10.10;7.93;;;8.90;99.90;;;;;;5081789;28;20500;-79
2022/04/11 07:50:30;;;;;;;7.90;5.53;;;9.10;99.90;;;;;;5082746;28;20475;-79
2022/04/11 07:52:58;;;;;;;6.30;5.70;;;9.20;99.90;;;;;;5083593;28;20864;-79
2022/04/11 07:55:27;;;;;;;9.90;6.53;;;9.40;99.90;;;;;;5083500;28;20524;-79
2022/04/11 07:57:55;;;;;;;6.57;5.93;;;9.50;99.90;;;;;;5082719;28;20469;-79
2022/04/11 08:00:24;;;;;;;8.50;5.70;;;9.60;99.90;;;;;;5084274;28;20516;-79
2022/04/11 08:02:53;;;;;;;7.23;6.37;;;9.70;99.90;;;;;;5081384;28;20449;-79
2022/04/11 08:05:24;;;;;;;7.10;6.40;;;9.80;99.90;;;;;;5083676;28;20440;-80
2022/04/11 08:07:53;;;;;;;6.33;5.67;;;9.90;99.90;;;;;;5085063;28;20539;-79
2022/04/11 08:10:22;;;;;;;6.10;5.60;;;9.90;99.90;;;;;;5082633;28;20449;-79
2022/04/11 08:12:52;;;;;;;5.70;4.90;;;10.10;99.90;;;;;;5078763;28;20457;-79
2022/04/11 08:15:21;;;;;;;7.30;5.63;;;10.20;99.90;;;;;;5079482;28;20950;-79
2022/04/11 08:17:49;;;;;;;10.20;4.90;;;10.30;99.90;;;;;;5083969;28;20485;-79
2022/04/11 08:20:17;;;;;;;8.47;5.53;;;10.40;99.90;;;;;;5083966;28;20880;-79
2022/04/11 08:22:47;;;;;;;8.77;5.40;;;10.50;99.90;;;;;;5085783;28;20445;-79
2022/04/11 08:25:16;;;;;;;7.03;3.83;;;10.60;99.90;;;;;;5085897;28;20433;-79
2022/04/11 08:27:46;;;;;;;6.60;5.67;;;10.70;99.90;;;;;;5085017;28;20465;-79
2022/04/11 08:30:14;;;;;;;8.50;5.13;;;10.80;99.90;;;;;;5084027;28;20449;-79
2022/04/11 08:32:45;;;;;;;4.97;4.47;;;10.90;99.90;;;;;;5085581;28;20437;-79
2022/04/11 08:35:15;;;;;;;5.80;4.03;;;11.00;99.90;;;;;;5083797;28;20441;-79
2022/04/11 08:37:45;;;;;;;6.43;3.53;;;11.10;99.90;;;;;;5083426;28;20513;-79
2022/04/11 08:40:16;;;;;;;4.40;3.40;;;11.10;99.90;;;;;;5082941;28;20487;-78
2022/04/11 08:42:45;;;;;;;6.23;3.90;;;11.20;99.90;;;;;;5082724;28;20518;-79
2022/04/11 08:45:15;;;;;;;6.90;3.93;;;11.20;99.90;;;;;;5083112;28;20448;-79
2022/04/11 08:47:44;;;;;;;6.57;3.33;;;11.20;99.90;;;;;;5083068;28;20465;-79
2022/04/11 08:50:13;;;;;;;9.90;3.63;;;11.20;99.90;;;;;;5083822;28;20433;-78
2022/04/11 08:52:42;;;;;;;6.60;3.67;;;11.10;99.90;;;;;;5082213;28;20457;-79
2022/04/11 08:55:11;;;;;;;7.23;3.83;;;11.20;99.90;;;;;;5081934;28;20476;-78
2022/04/11 08:57:41;;;;;;;3.93;3.30;;;11.10;99.90;;;;;;5082494;28;20483;-79
2022/04/11 09:00:12;;;;;;;6.57;4.07;;;11.30;99.90;;;;;;5081910;28;20528;-79
2022/04/11 09:02:42;;;;;;;3.83;2.77;;;11.30;99.90;;;;;;5082051;28;20433;-78
2022/04/11 09:05:12;;;;;;;5.73;3.13;;;11.40;99.90;;;;;;5084046;28;20445;-78
2022/04/11 09:07:47;;;;;;;5.27;3.07;;;11.50;99.90;;;;;;5082391;28;20837;-79
2022/04/11 09:10:20;;;;;;;3.00;2.70;;;11.50;99.90;;;;;;5081219;28;20469;-79
2022/04/11 09:12:51;;;;;;;4.10;2.40;;;11.60;99.90;;;;;;5081759;28;20445;-79
2022/04/11 09:15:20;;;;;;;10.23;2.43;;;11.70;99.90;;;;;;5087183;28;20444;-78
2022/04/11 09:17:49;;;;;;;3.03;1.80;;;11.80;99.90;;;;;;5087631;28;20437;-79
2022/04/11 09:20:18;;;;;;;2.30;1.70;;;11.90;99.90;;;;;;5086962;28;20440;-78
2022/04/11 09:22:47;;;;;;;3.47;1.90;;;12.00;99.90;;;;;;5086273;28;20506;-78
2022/04/11 09:25:17;;;;;;;2.70;1.93;;;12.10;99.90;;;;;;5085392;28;20433;-78
2022/04/11 09:27:46;;;;;;;3.70;1.90;;;12.10;99.90;;;;;;5086265;28;20535;-78
2022/04/11 09:30:25;;;;;;;5.63;1.87;;;12.20;99.90;;;;;;5084989;28;20445;-79
2022/04/11 09:33:04;;;;;;;4.37;2.20;;;12.20;99.90;;;;;;5084743;28;20865;-78
2022/04/11 09:35:33;;;;;;;4.13;1.73;;;12.10;99.90;;;;;;5084519;28;20425;-78
2022/04/11 09:38:07;;;;;;;3.33;2.27;;;12.10;99.90;;;;;;5083448;28;20812;-78
2022/04/11 09:40:40;;;;;;;2.67;1.90;;;12.10;99.90;;;;;;5083969;28;20453;-78
2022/04/11 09:43:09;;;;;;;2.00;1.50;;;12.20;99.90;;;;;;5083366;28;20464;-78
2022/04/11 09:45:44;;;;;;;2.47;1.60;;;12.20;99.90;;;;;;5082126;28;20477;-78
2022/04/11 09:48:17;;;;;;;2.73;1.63;;;12.20;99.90;;;;;;5079758;28;20484;-78
2022/04/11 09:50:47;;;;;;;3.03;1.57;;;12.20;99.90;;;;;;5081490;28;20422;-78
2022/04/11 09:53:17;;;;;;;3.40;2.10;;;12.30;99.90;;;;;;5078529;28;20442;-78
2022/04/11 09:55:47;;;;;;;3.53;2.00;;;12.30;99.90;;;;;;5080154;28;20507;-78
2022/04/11 09:58:17;;;;;;;3.40;1.70;;;12.30;99.90;;;;;;5081872;28;20441;-78
2022/04/11 10:00:49;;;;;;;2.83;1.73;;;12.30;99.90;;;;;;5080810;28;21007;-78
2022/04/11 10:03:17;;;;;;;4.10;2.10;;;12.40;99.80;;;;;;5079172;28;20445;-78
2022/04/11 10:05:46;;;;;;;5.23;1.80;;;12.40;99.70;;;;;;5079656;28;20453;-78
2022/04/11 10:08:14;;;;;;;5.33;1.73;;;12.40;99.60;;;;;;5081081;28;20913;-78
2022/04/11 10:10:43;;;;;;;3.20;1.50;;;12.50;99.20;;;;;;5079770;28;20455;-79
2022/04/11 10:13:13;;;;;;;2.80;1.90;;;12.50;98.90;;;;;;5079644;28;20474;-78
2022/04/11 10:15:43;;;;;;;2.77;1.70;;;12.40;98.60;;;;;;5080009;28;20469;-78
2022/04/11 10:18:16;;;;;;;3.93;1.83;;;12.50;98.70;;;;;;5080393;28;21003;-78
2022/04/11 10:20:48;;;;;;;4.43;2.10;;;12.50;98.70;;;;;;5079416;28;20573;-81
2022/04/11 10:23:47;;;;;;;5.03;2.17;;;12.50;99.00;;;;;;5080060;28;20436;-78
2022/04/11 10:26:18;;;;;;;2.23;1.50;;;12.50;98.50;;;;;;5077615;28;20499;-78
2022/04/11 10:28:47;;;;;;;2.53;2.13;;;12.60;98.50;;;;;;5077544;28;20495;-78
2022/04/11 10:31:16;;;;;;;4.27;2.10;;;12.60;98.50;;;;;;5077649;28;20460;-78
2022/04/11 10:33:48;;;;;;;4.87;2.47;;;12.60;98.50;;;;;;5077566;28;20483;-78
2022/04/11 10:36:28;;;;;;;7.03;3.07;;;12.70;98.50;;;;;;5077935;28;20805;-78
2022/04/11 10:39:25;;;;;;;6.03;3.40;;;12.80;98.70;;;;;;5077940;28;20471;-78
2022/04/11 10:42:11;;;;;;;5.37;3.23;;;12.80;98.50;;;;;;5077496;28;20438;-78
2022/04/11 10:44:43;;;;;;;5.80;2.73;;;12.90;98.50;;;;;;5077154;28;20473;-78
2022/04/11 10:47:30;;;;;;;4.83;2.97;;;12.90;98.30;;;;;;5075971;28;20552;-78
2022/04/11 10:50:35;;;;;;;3.73;3.00;;;12.90;97.70;;;;;;5076489;28;20476;-78
2022/04/11 10:53:25;;;;;;;3.80;2.90;;;12.90;97.70;;;;;;5077550;28;20509;-78
2022/04/11 10:56:03;;;;;;;3.73;2.90;;;12.90;97.80;;;;;;5075908;28;20551;-78
2022/04/11 10:58:46;;;;;;;5.63;3.70;;;12.90;97.80;;;;;;5075576;28;20895;-78
2022/04/11 11:01:15;;;;;;;8.53;3.20;;;13.00;97.60;;;;;;5075476;28;20483;-77
2022/04/11 11:03:59;;;;;;;5.27;3.70;;;13.00;97.70;;;;;;5075794;28;20453;-77
2022/04/11 11:06:27;;;;;;;3.80;3.03;;;13.10;97.40;;;;;;5074977;28;20563;-77
2022/04/11 11:09:15;;;;;;;6.17;3.57;;;13.00;97.10;;;;;;5075663;28;20472;-77
2022/04/11 11:11:44;;;;;;;4.20;3.03;;;13.10;96.60;;;;;;5074466;28;20437;-78
2022/04/11 11:14:39;;;;;;;7.23;3.73;;;13.00;96.30;;;;;;5076100;28;20491;-77
2022/04/11 11:17:08;;;;;;;4.60;3.00;;;12.90;96.20;;;;;;5074793;28;20473;-77
2022/04/11 11:20:01;;;;;;;4.47;3.50;;;12.90;96.40;;;;;;5074717;28;20491;-77
2022/04/11 11:22:33;;;;;;;5.70;3.23;;;12.90;96.10;;;;;;5075716;28;20487;-77
2022/04/11 11:25:16;;;;;;;4.37;3.30;;;12.90;96.20;;;;;;5076501;28;20488;-77
2022/04/11 11:27:49;;;;;;;4.60;3.13;;;12.90;96.10;;;;;;5076258;28;20456;-78
2022/04/11 11:30:17;;;;;;;4.03;3.37;;;12.90;96.10;;;;;;5075362;28;20441;-78
2022/04/11 11:32:45;;;;;;;4.20;3.00;;;12.90;96.10;;;;;;5075256;28;20972;-78
2022/04/11 11:35:13;;;;;;;5.50;3.40;;;12.90;95.80;;;;;;5074963;28;20453;-77
2022/04/11 11:37:42;;;;;;;5.60;4.70;;;12.90;95.80;;;;;;5075326;28;20456;-78
2022/04/11 11:40:11;;;;;;;3.67;3.23;;;13.00;96.00;;;;;;5075057;28;20457;-78
2022/04/11 11:42:40;;;;;;;5.07;3.30;;;13.00;96.00;;;;;;5075115;28;20533;-78
2022/04/11 11:45:09;;;;;;;4.53;3.37;;;13.10;95.90;;;;;;5074910;28;20472;-78
2022/04/11 11:47:37;;;;;;;4.47;3.50;;;13.10;95.70;;;;;;5074388;28;20465;-78
2022/04/11 11:50:07;;;;;;;3.93;3.37;;;13.10;95.50;;;;;;5074437;28;20465;-78
2022/04/11 11:52:38;;;;;;;5.00;3.80;;;13.10;95.30;;;;;;5076265;28;20481;-78
2022/04/11 11:55:07;;;;;;;5.20;4.20;;;13.10;95.40;;;;;;5075700;28;20433;-77
2022/04/11 11:57:36;;;;;;;5.10;3.37;;;13.20;95.20;;;;;;5075256;28;20456;-77
2022/04/11 12:00:08;;;;;;;3.87;3.20;;;13.10;94.60;;;;;;5075219;28;20437;-78
2022/04/11 12:05:28;;;;;;;3.40;3.10;;;13.00;94.70;;;;;;5073944;28;20445;-78
2022/04/11 12:08:14;;;;;;;4.70;3.60;;;13.00;94.70;;;;;;5074552;28;20958;-78
2022/04/11 12:10:43;;;;;;;5.03;3.53;;;13.00;94.50;;;;;;5075919;28;20452;-77
2022/04/11 12:13:12;;;;;;;4.90;3.57;;;13.00;94.30;;;;;;5075374;28;21085;-78
2022/04/11 12:15:41;;;;;;;5.53;3.70;;;13.00;94.60;;;;;;5075103;28;20988;-77
2022/04/11 12:18:10;;;;;;;4.33;3.47;;;13.00;94.00;;;;;;5075161;28;20437;-77
2022/04/11 12:20:38;;;;;;;4.80;3.87;;;13.00;94.20;;;;;;5075168;28;20441;-78
2022/04/11 12:23:09;;;;;;;4.00;3.00;;;13.00;94.30;;;;;;5074158;28;20462;-78
2022/04/11 12:25:38;;;;;;;5.73;3.83;;;13.10;94.30;;;;;;5074542;28;20575;-78
2022/04/11 12:28:14;;;;;;;4.13;3.77;;;13.10;94.20;;;;;;5075406;28;20488;-78
2022/04/11 12:30:47;;;;;;;6.27;4.00;;;13.10;94.20;;;;;;5075216;28;20448;-78
2022/04/11 12:33:35;;;;;;;4.77;3.80;;;13.10;94.10;;;;;;5074559;28;20437;-78
2022/04/11 12:36:12;;;;;;;5.70;3.77;;;13.10;94.00;;;;;;5074039;28;20469;-78
2022/04/11 12:38:48;;;;;;;5.57;4.07;;;13.10;94.00;;;;;;5076970;28;20469;-78
2022/04/11 12:41:34;;;;;;;6.67;5.10;;;13.10;94.10;;;;;;5074707;28;20877;-78
2022/04/11 12:44:08;;;;;;;5.00;4.50;;;13.10;94.20;;;;;;5074736;28;20453;-78
2022/04/11 12:46:40;;;;;;;7.37;5.70;;;13.10;94.30;;;;;;5076912;28;20469;-78
2022/04/11 12:49:10;;;;;;;6.00;5.00;;;13.20;94.50;;;;;;5075197;28;20457;-78
2022/04/11 12:51:39;;;;;;;6.00;4.53;;;13.20;94.60;;;;;;5078308;28;20414;-78
2022/04/11 12:54:12;;;;;;;5.97;5.40;;;13.30;94.70;;;;;;5077009;28;20437;-78
2022/04/11 12:56:43;;;;;;;5.63;5.10;;;13.40;94.80;;;;;;5076156;28;20473;-78
2022/04/11 12:59:27;;;;;;;6.00;5.40;;;13.40;94.60;;;;;;5076042;28;20905;-78
2022/04/11 13:02:03;;;;;;;6.00;5.20;;;13.50;94.60;;;;;;5076472;28;20482;-78
2022/04/11 13:04:32;;;;;;;5.60;5.07;;;13.50;94.70;;;;;;5073974;28;20448;-78
2022/04/11 13:07:00;;;;;;;5.63;4.83;;;13.50;94.60;;;;;;5075452;28;20469;-78
2022/04/11 13:09:29;;;;;;;5.27;4.77;;;13.50;94.60;;;;;;5077150;28;20564;-78
2022/04/11 13:11:57;;;;;;;7.20;5.20;;;13.60;94.50;;;;;;5075206;28;20447;-78
2022/04/11 13:14:35;;;;;;;6.50;5.80;;;13.60;94.50;;;;;;5076254;28;20462;-78